EW6342 Weather Reports


time (UTC)temp
F
wind
direction
speed
knots
gust
knots
rain 1hr
in
rain 24hr
in
rain mn
in
humidity
%
barometer
mb
20220930151102 72 83 2.6 6.1 0.00 0.00 0.00 44 1018.6
20220930145551 71 78 1.7 6.1 0.00 0.00 0.00 50 1018.7
20220930144038 68 49 1.7 3.5 0.00 0.00 0.00 55 1018.6
20220930142606 65 30 1.7 3.5 0.00 0.00 0.00 63 1018.6
20220930141133 61 43 0.9 4.3 0.00 0.00 0.00 72 1018.7
20220930135539 59 57 0.9 2.6 0.00 0.00 0.00 78 1018.7
20220930134051 57 48 0.9 3.5 0.00 0.00 0.00 78 1018.7
20220930132559 56 67 0.0 0.9 0.00 0.00 0.00 79 1018.8
20220930131045 55 67 0.0 0.9 0.00 0.00 0.00 80 1018.6
20220930125553 55 67 0.0 0.9 0.00 0.00 0.00 81 1018.5
20220930124102 54 67 0.0 0.0 0.00 0.00 0.00 81 1018.4
20220930122553 54 67 0.0 0.0 0.00 0.00 0.00 80 1018.3
20220930121121 54 67 0.0 0.0 0.00 0.00 0.00 80 1018.3
20220930115626 54 67 0.0 0.0 0.00 0.00 0.00 79 1018.3
20220930115544 54 67 0.0 0.0 0.00 0.00 0.00 79 1018.3
20220930114052 54 67 0.0 0.0 0.00 0.00 0.00 79 1018.1
20220930112600 54 67 0.0 0.9 0.00 0.00 0.00 79 1018.1
20220930111127 55 71 0.0 0.9 0.00 0.00 0.00 78 1018.1
20220930111045 55 71 0.0 0.9 0.00 0.00 0.00 78 1018.1
20220930105556 55 71 0.0 0.9 0.00 0.00 0.00 76 1018.1
20220930104122 56 71 0.0 0.0 0.00 0.00 0.00 75 1018.1
20220930104040 56 71 0.0 0.0 0.00 0.00 0.00 75 1018.1
20220930102608 57 71 0.0 0.0 0.00 0.00 0.00 73 1018.2
20220930101133 57 71 0.0 0.0 0.00 0.00 0.00 73 1018.3
20220930101051 57 71 0.0 0.0 0.00 0.00 0.00 73 1018.3
20220930095538 58 71 0.0 0.0 0.00 0.00 0.00 72 1018.3
20220930094045 58 71 0.0 0.0 0.00 0.00 0.00 71 1018.3
20220930092556 58 71 0.0 0.0 0.00 0.00 0.00 70 1018.3
20220930091044 59 71 0.0 0.0 0.00 0.00 0.00 69 1018.3
20220930085611 59 71 0.0 0.0 0.00 0.00 0.00 68 1018.4
20220930084114 59 71 0.0 0.0 0.00 0.00 0.00 67 1018.5
20220930082545 60 71 0.0 0.0 0.00 0.00 0.00 66 1018.4
20220930081051 61 71 0.0 0.0 0.00 0.00 0.00 64 1018.5
20220930075556 62 71 0.0 0.0 0.00 0.00 0.00 64 1018.5
20220930074102 62 71 0.0 0.0 0.00 0.00 0.00 62 1018.6
20220930072609 63 71 0.0 0.9 0.00 0.00 0.00 61 1018.4
20220930071038 63 73 0.0 0.9 0.00 0.00 0.00 59 1018.3
20220930065605 64 58 0.0 1.7 0.00 0.00 0.00 60 1018.4
20220930064050 65 42 0.0 2.6 0.00 0.00 0.00 58 1018.4
20220930062615 65 63 0.0 2.6 0.00 0.00 0.00 59 1018.3
20220930061105 65 72 0.9 2.6 0.00 0.00 0.00 58 1018.3
20220930055551 65 44 0.9 2.6 0.00 0.00 0.00 59 1018.2
20220930054040 65 86 0.9 2.6 0.00 0.00 0.00 60 1018.2
20220930052608 65 88 0.0 1.7 0.00 0.00 0.00 61 1018.2
20220930051114 65 75 0.0 0.9 0.00 0.00 0.00 61 1018.2
20220930045605 66 75 0.9 0.9 0.00 0.00 0.00 58 1018.0
20220930044052 66 75 0.0 0.9 0.00 0.00 0.00 56 1018.1
20220930042541 67 75 0.0 0.9 0.00 0.00 0.00 55 1018.1
20220930041130 67 75 0.0 0.0 0.00 0.00 0.00 57 1018.1
20220930035554 68 75 0.0 0.9 0.00 0.00 0.00 53 1018.1
20220930034106 69 75 0.0 0.9 0.00 0.00 0.00 56 1018.0
20220930032634 69 75 0.0 0.0 0.00 0.00 0.00 51 1018.0
20220930032551 69 75 0.0 0.0 0.00 0.00 0.00 51 1018.0
20220930031039 70 74 0.0 0.9 0.00 0.00 0.00 51 1017.9
20220930025547 71 74 0.0 0.9 0.00 0.00 0.00 54 1017.8
20220930024040 71 81 0.0 0.9 0.00 0.00 0.00 52 1017.7
20220930022546 72 81 0.0 1.7 0.00 0.00 0.00 52 1017.6
20220930021051 72 69 0.9 1.7 0.00 0.00 0.00 52 1017.5
20220930015637 72 68 0.0 0.0 0.00 0.00 0.00 53 1017.3
20220930015554 72 68 0.0 0.0 0.00 0.00 0.00 53 1017.3
20220930014041 73 68 0.0 0.9 0.00 0.00 0.00 53 1017.4
20220930012610 74 67 0.0 0.0 0.00 0.00 0.00 50 1017.3
20220930011040 75 67 0.0 0.9 0.00 0.00 0.00 49 1017.2
20220930005548 75 58 0.9 2.6 0.00 0.00 0.00 47 1017.1
20220930004055 76 45 0.9 1.7 0.00 0.00 0.00 45 1017.0
20220930002538 77 51 0.0 0.0 0.00 0.00 0.00 44 1017.1
20220930001050 79 51 0.0 0.9 0.00 0.00 0.00 42 1017.1
20220929235558 80 51 0.0 0.9 0.00 0.00 0.00 41 1017.0